sensor_id;sensor_type;location;lat;lon;timestamp;P1;durP1;ratioP1;P2;durP2;ratioP2
61019;SDS011;51384;45.494;9.150;2022-07-23T00:02:25;7.97;;;7.18;;
61019;SDS011;51384;45.494;9.150;2022-07-23T00:04:51;7.20;;;6.50;;
61019;SDS011;51384;45.494;9.150;2022-07-23T00:07:17;7.10;;;6.40;;
61019;SDS011;51384;45.494;9.150;2022-07-23T00:09:43;9.00;;;7.32;;
61019;SDS011;51384;45.494;9.150;2022-07-23T00:12:10;8.88;;;6.55;;
61019;SDS011;51384;45.494;9.150;2022-07-23T00:14:36;7.90;;;6.57;;
61019;SDS011;51384;45.494;9.150;2022-07-23T00:17:02;9.30;;;6.68;;
61019;SDS011;51384;45.494;9.150;2022-07-23T00:19:28;8.77;;;7.05;;
61019;SDS011;51384;45.494;9.150;2022-07-23T00:21:54;7.32;;;6.53;;
61019;SDS011;51384;45.494;9.150;2022-07-23T00:24:20;7.70;;;6.90;;
61019;SDS011;51384;45.494;9.150;2022-07-23T00:26:46;7.45;;;6.68;;
61019;SDS011;51384;45.494;9.150;2022-07-23T00:29:12;7.45;;;6.75;;
61019;SDS011;51384;45.494;9.150;2022-07-23T00:31:38;8.65;;;6.85;;
61019;SDS011;51384;45.494;9.150;2022-07-23T00:34:04;8.07;;;7.28;;
61019;SDS011;51384;45.494;9.150;2022-07-23T00:36:30;8.75;;;6.80;;
61019;SDS011;51384;45.494;9.150;2022-07-23T00:38:56;9.82;;;7.25;;
61019;SDS011;51384;45.494;9.150;2022-07-23T00:41:22;8.43;;;7.25;;
61019;SDS011;51384;45.494;9.150;2022-07-23T00:43:48;8.38;;;7.30;;
61019;SDS011;51384;45.494;9.150;2022-07-23T00:46:21;7.68;;;6.10;;
61019;SDS011;51384;45.494;9.150;2022-07-23T00:48:47;6.95;;;6.25;;
61019;SDS011;51384;45.494;9.150;2022-07-23T00:51:16;7.88;;;6.60;;
61019;SDS011;51384;45.494;9.150;2022-07-23T00:53:43;7.78;;;7.03;;
61019;SDS011;51384;45.494;9.150;2022-07-23T00:56:10;7.50;;;6.80;;
61019;SDS011;51384;45.494;9.150;2022-07-23T00:58:36;7.80;;;6.95;;
61019;SDS011;51384;45.494;9.150;2022-07-23T01:01:02;8.30;;;6.90;;
61019;SDS011;51384;45.494;9.150;2022-07-23T01:03:28;7.90;;;7.07;;
61019;SDS011;51384;45.494;9.150;2022-07-23T01:05:55;8.80;;;6.50;;
61019;SDS011;51384;45.494;9.150;2022-07-23T01:08:21;9.13;;;6.90;;
61019;SDS011;51384;45.494;9.150;2022-07-23T01:10:47;7.78;;;6.80;;
61019;SDS011;51384;45.494;9.150;2022-07-23T01:13:13;7.38;;;6.22;;
61019;SDS011;51384;45.494;9.150;2022-07-23T01:15:40;8.75;;;6.50;;
61019;SDS011;51384;45.494;9.150;2022-07-23T01:18:08;6.82;;;6.10;;
61019;SDS011;51384;45.494;9.150;2022-07-23T01:20:35;9.20;;;6.75;;
61019;SDS011;51384;45.494;9.150;2022-07-23T01:23:02;7.00;;;6.28;;
61019;SDS011;51384;45.494;9.150;2022-07-23T01:25:28;8.70;;;7.10;;
61019;SDS011;51384;45.494;9.150;2022-07-23T01:27:54;8.05;;;6.60;;
61019;SDS011;51384;45.494;9.150;2022-07-23T01:30:20;7.43;;;6.50;;
61019;SDS011;51384;45.494;9.150;2022-07-23T01:32:46;7.47;;;6.78;;
61019;SDS011;51384;45.494;9.150;2022-07-23T01:35:12;8.05;;;6.88;;
61019;SDS011;51384;45.494;9.150;2022-07-23T01:37:38;7.00;;;6.30;;
61019;SDS011;51384;45.494;9.150;2022-07-23T01:40:05;9.40;;;6.75;;
61019;SDS011;51384;45.494;9.150;2022-07-23T01:42:31;6.68;;;5.80;;
61019;SDS011;51384;45.494;9.150;2022-07-23T01:44:57;8.52;;;6.88;;
61019;SDS011;51384;45.494;9.150;2022-07-23T01:47:24;9.20;;;7.20;;
61019;SDS011;51384;45.494;9.150;2022-07-23T01:49:51;8.25;;;6.90;;
61019;SDS011;51384;45.494;9.150;2022-07-23T01:52:17;7.60;;;6.80;;
61019;SDS011;51384;45.494;9.150;2022-07-23T01:54:43;7.40;;;6.70;;
61019;SDS011;51384;45.494;9.150;2022-07-23T01:57:09;7.57;;;6.88;;
61019;SDS011;51384;45.494;9.150;2022-07-23T01:59:35;7.38;;;6.43;;
61019;SDS011;51384;45.494;9.150;2022-07-23T02:02:01;6.28;;;5.68;;
61019;SDS011;51384;45.494;9.150;2022-07-23T02:04:28;6.93;;;6.32;;
61019;SDS011;51384;45.494;9.150;2022-07-23T02:06:54;7.40;;;6.40;;
61019;SDS011;51384;45.494;9.150;2022-07-23T02:09:20;9.48;;;6.32;;
61019;SDS011;51384;45.494;9.150;2022-07-23T02:11:47;7.15;;;6.50;;
61019;SDS011;51384;45.494;9.150;2022-07-23T02:14:13;7.53;;;6.80;;
61019;SDS011;51384;45.494;9.150;2022-07-23T02:16:39;7.13;;;6.50;;
61019;SDS011;51384;45.494;9.150;2022-07-23T02:19:05;7.10;;;6.40;;
61019;SDS011;51384;45.494;9.150;2022-07-23T02:21:31;6.95;;;6.30;;
61019;SDS011;51384;45.494;9.150;2022-07-23T02:23:58;8.10;;;6.90;;
61019;SDS011;51384;45.494;9.150;2022-07-23T02:26:24;7.78;;;6.53;;
61019;SDS011;51384;45.494;9.150;2022-07-23T02:28:50;7.30;;;6.57;;
61019;SDS011;51384;45.494;9.150;2022-07-23T02:31:17;7.30;;;6.55;;
61019;SDS011;51384;45.494;9.150;2022-07-23T02:33:43;8.75;;;7.32;;
61019;SDS011;51384;45.494;9.150;2022-07-23T02:36:09;7.50;;;6.53;;
61019;SDS011;51384;45.494;9.150;2022-07-23T02:38:35;8.05;;;6.93;;
61019;SDS011;51384;45.494;9.150;2022-07-23T02:41:01;9.40;;;7.03;;
61019;SDS011;51384;45.494;9.150;2022-07-23T02:43:27;7.60;;;6.80;;
61019;SDS011;51384;45.494;9.150;2022-07-23T02:45:54;8.65;;;7.80;;
61019;SDS011;51384;45.494;9.150;2022-07-23T02:48:19;9.15;;;6.90;;
61019;SDS011;51384;45.494;9.150;2022-07-23T02:50:46;8.05;;;6.60;;
61019;SDS011;51384;45.494;9.150;2022-07-23T02:53:12;9.07;;;7.10;;
61019;SDS011;51384;45.494;9.150;2022-07-23T02:55:38;7.32;;;6.60;;
61019;SDS011;51384;45.494;9.150;2022-07-23T02:58:04;8.23;;;6.88;;
61019;SDS011;51384;45.494;9.150;2022-07-23T03:00:30;7.82;;;6.85;;
61019;SDS011;51384;45.494;9.150;2022-07-23T03:02:56;9.13;;;7.10;;
61019;SDS011;51384;45.494;9.150;2022-07-23T03:05:22;8.20;;;7.20;;
61019;SDS011;51384;45.494;9.150;2022-07-23T03:07:48;7.70;;;6.90;;
61019;SDS011;51384;45.494;9.150;2022-07-23T03:10:14;7.55;;;6.85;;
61019;SDS011;51384;45.494;9.150;2022-07-23T03:12:40;8.15;;;7.00;;
61019;SDS011;51384;45.494;9.150;2022-07-23T03:15:07;8.63;;;7.00;;
61019;SDS011;51384;45.494;9.150;2022-07-23T03:17:33;8.63;;;7.32;;
61019;SDS011;51384;45.494;9.150;2022-07-23T03:19:59;9.57;;;7.15;;
61019;SDS011;51384;45.494;9.150;2022-07-23T03:22:25;8.25;;;7.00;;
61019;SDS011;51384;45.494;9.150;2022-07-23T03:24:51;10.07;;;7.70;;
61019;SDS011;51384;45.494;9.150;2022-07-23T03:27:21;7.82;;;7.05;;
61019;SDS011;51384;45.494;9.150;2022-07-23T03:29:47;9.95;;;7.45;;
61019;SDS011;51384;45.494;9.150;2022-07-23T03:32:13;7.60;;;6.90;;
61019;SDS011;51384;45.494;9.150;2022-07-23T03:34:39;9.23;;;7.82;;
61019;SDS011;51384;45.494;9.150;2022-07-23T03:37:05;8.93;;;8.02;;
61019;SDS011;51384;45.494;9.150;2022-07-23T03:39:31;8.38;;;7.53;;
61019;SDS011;51384;45.494;9.150;2022-07-23T03:41:57;8.40;;;7.32;;
61019;SDS011;51384;45.494;9.150;2022-07-23T03:44:23;8.45;;;6.97;;
61019;SDS011;51384;45.494;9.150;2022-07-23T03:46:49;9.40;;;7.35;;
61019;SDS011;51384;45.494;9.150;2022-07-23T03:49:15;7.68;;;6.88;;
61019;SDS011;51384;45.494;9.150;2022-07-23T03:51:41;8.10;;;6.95;;
61019;SDS011;51384;45.494;9.150;2022-07-23T03:54:07;7.72;;;6.93;;
61019;SDS011;51384;45.494;9.150;2022-07-23T03:56:33;8.38;;;7.18;;
61019;SDS011;51384;45.494;9.150;2022-07-23T03:58:59;7.60;;;6.80;;
61019;SDS011;51384;45.494;9.150;2022-07-23T04:01:26;9.00;;;7.18;;
61019;SDS011;51384;45.494;9.150;2022-07-23T04:03:52;9.27;;;6.90;;
61019;SDS011;51384;45.494;9.150;2022-07-23T04:06:18;9.27;;;7.20;;
61019;SDS011;51384;45.494;9.150;2022-07-23T04:08:44;9.50;;;7.72;;
61019;SDS011;51384;45.494;9.150;2022-07-23T04:11:10;8.15;;;6.97;;
61019;SDS011;51384;45.494;9.150;2022-07-23T04:13:36;8.10;;;7.00;;
61019;SDS011;51384;45.494;9.150;2022-07-23T04:16:02;7.97;;;7.18;;
61019;SDS011;51384;45.494;9.150;2022-07-23T04:18:29;8.40;;;7.47;;
61019;SDS011;51384;45.494;9.150;2022-07-23T04:20:55;9.55;;;7.93;;
61019;SDS011;51384;45.494;9.150;2022-07-23T04:23:21;8.98;;;7.40;;
61019;SDS011;51384;45.494;9.150;2022-07-23T04:25:47;8.20;;;7.40;;
61019;SDS011;51384;45.494;9.150;2022-07-23T04:28:13;8.23;;;7.40;;
61019;SDS011;51384;45.494;9.150;2022-07-23T04:30:39;8.00;;;7.20;;
61019;SDS011;51384;45.494;9.150;2022-07-23T04:33:05;8.35;;;7.10;;
61019;SDS011;51384;45.494;9.150;2022-07-23T04:35:34;8.63;;;7.03;;
61019;SDS011;51384;45.494;9.150;2022-07-23T04:38:01;9.25;;;7.57;;
61019;SDS011;51384;45.494;9.150;2022-07-23T04:40:28;8.27;;;7.47;;
61019;SDS011;51384;45.494;9.150;2022-07-23T04:42:54;7.78;;;7.00;;
61019;SDS011;51384;45.494;9.150;2022-07-23T04:45:20;9.80;;;7.13;;
61019;SDS011;51384;45.494;9.150;2022-07-23T04:47:46;10.25;;;7.10;;
61019;SDS011;51384;45.494;9.150;2022-07-23T04:50:12;8.68;;;7.05;;
61019;SDS011;51384;45.494;9.150;2022-07-23T04:52:42;10.98;;;6.97;;
61019;SDS011;51384;45.494;9.150;2022-07-23T04:55:08;8.05;;;7.25;;
61019;SDS011;51384;45.494;9.150;2022-07-23T04:57:34;7.97;;;7.10;;
61019;SDS011;51384;45.494;9.150;2022-07-23T05:00:00;10.10;;;7.72;;
61019;SDS011;51384;45.494;9.150;2022-07-23T05:02:26;8.93;;;6.97;;
61019;SDS011;51384;45.494;9.150;2022-07-23T05:04:53;8.82;;;7.13;;
61019;SDS011;51384;45.494;9.150;2022-07-23T05:07:19;11.80;;;10.40;;
61019;SDS011;51384;45.494;9.150;2022-07-23T05:09:45;9.63;;;7.25;;
61019;SDS011;51384;45.494;9.150;2022-07-23T05:12:11;7.28;;;6.50;;
61019;SDS011;51384;45.494;9.150;2022-07-23T05:14:37;7.22;;;6.53;;
61019;SDS011;51384;45.494;9.150;2022-07-23T05:17:03;7.80;;;7.00;;
61019;SDS011;51384;45.494;9.150;2022-07-23T05:19:29;8.05;;;6.90;;
61019;SDS011;51384;45.494;9.150;2022-07-23T05:21:55;8.00;;;6.05;;
61019;SDS011;51384;45.494;9.150;2022-07-23T05:24:21;6.55;;;5.53;;
61019;SDS011;51384;45.494;9.150;2022-07-23T05:26:47;6.72;;;5.70;;
61019;SDS011;51384;45.494;9.150;2022-07-23T05:29:13;8.90;;;6.05;;
61019;SDS011;51384;45.494;9.150;2022-07-23T05:31:39;7.20;;;5.85;;
61019;SDS011;51384;45.494;9.150;2022-07-23T05:34:05;6.50;;;5.88;;
61019;SDS011;51384;45.494;9.150;2022-07-23T05:36:32;7.78;;;5.90;;
61019;SDS011;51384;45.494;9.150;2022-07-23T05:38:58;8.07;;;5.13;;
61019;SDS011;51384;45.494;9.150;2022-07-23T05:41:24;6.65;;;5.05;;
61019;SDS011;51384;45.494;9.150;2022-07-23T05:43:50;5.75;;;5.20;;
61019;SDS011;51384;45.494;9.150;2022-07-23T05:46:16;6.00;;;5.40;;
61019;SDS011;51384;45.494;9.150;2022-07-23T05:48:42;6.15;;;5.13;;
61019;SDS011;51384;45.494;9.150;2022-07-23T05:51:10;7.43;;;5.20;;
61019;SDS011;51384;45.494;9.150;2022-07-23T05:53:36;6.93;;;5.28;;
61019;SDS011;51384;45.494;9.150;2022-07-23T05:56:03;7.68;;;5.10;;
61019;SDS011;51384;45.494;9.150;2022-07-23T05:58:29;8.60;;;4.72;;
61019;SDS011;51384;45.494;9.150;2022-07-23T06:00:55;8.10;;;5.07;;
61019;SDS011;51384;45.494;9.150;2022-07-23T06:03:21;7.40;;;5.15;;
61019;SDS011;51384;45.494;9.150;2022-07-23T06:05:47;7.40;;;4.75;;
61019;SDS011;51384;45.494;9.150;2022-07-23T06:08:13;6.20;;;4.30;;
61019;SDS011;51384;45.494;9.150;2022-07-23T06:10:39;6.03;;;4.80;;
61019;SDS011;51384;45.494;9.150;2022-07-23T06:13:05;5.90;;;4.18;;
61019;SDS011;51384;45.494;9.150;2022-07-23T06:15:31;5.22;;;4.53;;
61019;SDS011;51384;45.494;9.150;2022-07-23T06:17:57;6.25;;;4.00;;
61019;SDS011;51384;45.494;9.150;2022-07-23T06:20:23;5.60;;;3.72;;
61019;SDS011;51384;45.494;9.150;2022-07-23T06:22:49;5.70;;;3.83;;
61019;SDS011;51384;45.494;9.150;2022-07-23T06:25:15;6.15;;;3.78;;
61019;SDS011;51384;45.494;9.150;2022-07-23T06:27:42;5.38;;;4.10;;
61019;SDS011;51384;45.494;9.150;2022-07-23T06:30:08;5.25;;;4.28;;
61019;SDS011;51384;45.494;9.150;2022-07-23T06:32:35;8.32;;;3.97;;
61019;SDS011;51384;45.494;9.150;2022-07-23T06:35:01;7.88;;;4.15;;
61019;SDS011;51384;45.494;9.150;2022-07-23T06:37:27;9.35;;;4.05;;
61019;SDS011;51384;45.494;9.150;2022-07-23T06:39:53;4.57;;;3.90;;
61019;SDS011;51384;45.494;9.150;2022-07-23T06:42:19;5.68;;;3.70;;
61019;SDS011;51384;45.494;9.150;2022-07-23T06:44:45;8.90;;;4.80;;
61019;SDS011;51384;45.494;9.150;2022-07-23T06:47:11;4.88;;;4.03;;
61019;SDS011;51384;45.494;9.150;2022-07-23T06:49:37;7.25;;;3.80;;
61019;SDS011;51384;45.494;9.150;2022-07-23T06:52:06;5.43;;;4.43;;
61019;SDS011;51384;45.494;9.150;2022-07-23T06:54:32;4.40;;;4.00;;
61019;SDS011;51384;45.494;9.150;2022-07-23T06:56:58;4.32;;;3.40;;
61019;SDS011;51384;45.494;9.150;2022-07-23T06:59:24;11.35;;;5.47;;
61019;SDS011;51384;45.494;9.150;2022-07-23T07:01:50;6.70;;;4.07;;
61019;SDS011;51384;45.494;9.150;2022-07-23T07:04:16;6.45;;;3.70;;
61019;SDS011;51384;45.494;9.150;2022-07-23T07:06:42;6.88;;;4.13;;
61019;SDS011;51384;45.494;9.150;2022-07-23T07:09:08;7.07;;;4.68;;
61019;SDS011;51384;45.494;9.150;2022-07-23T07:11:34;8.30;;;5.03;;
61019;SDS011;51384;45.494;9.150;2022-07-23T07:14:00;8.30;;;5.53;;
61019;SDS011;51384;45.494;9.150;2022-07-23T07:16:26;6.35;;;5.10;;
61019;SDS011;51384;45.494;9.150;2022-07-23T07:18:52;8.27;;;5.63;;
61019;SDS011;51384;45.494;9.150;2022-07-23T07:21:18;6.97;;;5.20;;
61019;SDS011;51384;45.494;9.150;2022-07-23T07:23:44;7.45;;;5.10;;
61019;SDS011;51384;45.494;9.150;2022-07-23T07:26:10;7.07;;;5.88;;
61019;SDS011;51384;45.494;9.150;2022-07-23T07:28:36;5.68;;;4.93;;
61019;SDS011;51384;45.494;9.150;2022-07-23T07:31:02;9.63;;;4.97;;
61019;SDS011;51384;45.494;9.150;2022-07-23T07:33:28;7.53;;;5.55;;
61019;SDS011;51384;45.494;9.150;2022-07-23T07:35:55;8.00;;;5.43;;
61019;SDS011;51384;45.494;9.150;2022-07-23T07:38:21;6.32;;;5.30;;
61019;SDS011;51384;45.494;9.150;2022-07-23T07:40:47;10.10;;;5.45;;
61019;SDS011;51384;45.494;9.150;2022-07-23T07:43:13;8.80;;;6.03;;
61019;SDS011;51384;45.494;9.150;2022-07-23T07:45:39;7.28;;;5.70;;
61019;SDS011;51384;45.494;9.150;2022-07-23T07:48:05;6.18;;;5.38;;
61019;SDS011;51384;45.494;9.150;2022-07-23T07:50:31;11.07;;;5.60;;
61019;SDS011;51384;45.494;9.150;2022-07-23T07:52:57;8.57;;;5.07;;
61019;SDS011;51384;45.494;9.150;2022-07-23T07:55:23;7.90;;;6.25;;
61019;SDS011;51384;45.494;9.150;2022-07-23T07:57:49;10.18;;;5.45;;
61019;SDS011;51384;45.494;9.150;2022-07-23T08:00:16;7.03;;;6.18;;
61019;SDS011;51384;45.494;9.150;2022-07-23T08:02:49;6.30;;;5.70;;
61019;SDS011;51384;45.494;9.150;2022-07-23T08:05:18;7.07;;;6.38;;
61019;SDS011;51384;45.494;9.150;2022-07-23T08:07:44;8.45;;;5.85;;
61019;SDS011;51384;45.494;9.150;2022-07-23T08:10:10;8.00;;;6.00;;
61019;SDS011;51384;45.494;9.150;2022-07-23T08:12:40;8.35;;;6.40;;
61019;SDS011;51384;45.494;9.150;2022-07-23T08:15:07;8.82;;;6.43;;
61019;SDS011;51384;45.494;9.150;2022-07-23T08:17:34;8.25;;;6.70;;
61019;SDS011;51384;45.494;9.150;2022-07-23T08:20:01;8.82;;;6.60;;
61019;SDS011;51384;45.494;9.150;2022-07-23T08:22:40;9.57;;;8.55;;
61019;SDS011;51384;45.494;9.150;2022-07-23T08:25:07;10.05;;;6.95;;
61019;SDS011;51384;45.494;9.150;2022-07-23T08:27:33;11.20;;;7.90;;
61019;SDS011;51384;45.494;9.150;2022-07-23T08:29:59;8.80;;;7.60;;
61019;SDS011;51384;45.494;9.150;2022-07-23T08:32:25;9.52;;;7.35;;
61019;SDS011;51384;45.494;9.150;2022-07-23T08:34:51;9.05;;;7.28;;
61019;SDS011;51384;45.494;9.150;2022-07-23T08:37:17;8.18;;;7.32;;
61019;SDS011;51384;45.494;9.150;2022-07-23T08:39:43;8.07;;;7.35;;
61019;SDS011;51384;45.494;9.150;2022-07-23T08:42:09;11.40;;;7.47;;
61019;SDS011;51384;45.494;9.150;2022-07-23T08:44:35;10.35;;;7.80;;
61019;SDS011;51384;45.494;9.150;2022-07-23T08:47:01;9.15;;;7.60;;
61019;SDS011;51384;45.494;9.150;2022-07-23T08:49:28;11.13;;;7.95;;
61019;SDS011;51384;45.494;9.150;2022-07-23T08:51:55;11.50;;;8.02;;
61019;SDS011;51384;45.494;9.150;2022-07-23T08:54:21;10.50;;;7.88;;
61019;SDS011;51384;45.494;9.150;2022-07-23T08:56:48;8.55;;;7.60;;
61019;SDS011;51384;45.494;9.150;2022-07-23T08:59:14;13.38;;;8.50;;
61019;SDS011;51384;45.494;9.150;2022-07-23T09:01:40;8.43;;;7.63;;
61019;SDS011;51384;45.494;9.150;2022-07-23T09:04:06;9.52;;;8.20;;
61019;SDS011;51384;45.494;9.150;2022-07-23T09:06:32;11.38;;;7.63;;
61019;SDS011;51384;45.494;9.150;2022-07-23T09:08:58;13.18;;;8.68;;
61019;SDS011;51384;45.494;9.150;2022-07-23T09:11:45;10.30;;;7.65;;
61019;SDS011;51384;45.494;9.150;2022-07-23T09:14:11;9.65;;;7.72;;
61019;SDS011;51384;45.494;9.150;2022-07-23T09:16:37;12.55;;;8.40;;
61019;SDS011;51384;45.494;9.150;2022-07-23T09:19:04;9.05;;;7.72;;
61019;SDS011;51384;45.494;9.150;2022-07-23T09:21:33;10.10;;;7.93;;
61019;SDS011;51384;45.494;9.150;2022-07-23T09:24:03;9.25;;;8.27;;
61019;SDS011;51384;45.494;9.150;2022-07-23T09:26:43;9.43;;;8.50;;
61019;SDS011;51384;45.494;9.150;2022-07-23T09:31:52;10.70;;;7.93;;
61019;SDS011;51384;45.494;9.150;2022-07-23T09:37:09;11.35;;;8.43;;
61019;SDS011;51384;45.494;9.150;2022-07-23T09:39:35;10.05;;;8.25;;
61019;SDS011;51384;45.494;9.150;2022-07-23T09:45:06;12.60;;;9.00;;
61019;SDS011;51384;45.494;9.150;2022-07-23T09:47:37;9.52;;;8.40;;
61019;SDS011;51384;45.494;9.150;2022-07-23T09:50:04;10.73;;;8.70;;
61019;SDS011;51384;45.494;9.150;2022-07-23T09:52:34;9.38;;;8.48;;
61019;SDS011;51384;45.494;9.150;2022-07-23T09:55:01;10.63;;;9.52;;
61019;SDS011;51384;45.494;9.150;2022-07-23T09:57:28;13.63;;;9.00;;
61019;SDS011;51384;45.494;9.150;2022-07-23T09:59:56;10.82;;;8.65;;
61019;SDS011;51384;45.494;9.150;2022-07-23T10:02:23;10.15;;;8.82;;
61019;SDS011;51384;45.494;9.150;2022-07-23T10:04:50;10.93;;;8.27;;
61019;SDS011;51384;45.494;9.150;2022-07-23T10:07:17;13.00;;;8.85;;
61019;SDS011;51384;45.494;9.150;2022-07-23T10:09:47;11.52;;;9.00;;
61019;SDS011;51384;45.494;9.150;2022-07-23T10:12:15;11.57;;;9.82;;
61019;SDS011;51384;45.494;9.150;2022-07-23T10:15:00;11.50;;;9.38;;
61019;SDS011;51384;45.494;9.150;2022-07-23T10:17:29;10.55;;;8.70;;
61019;SDS011;51384;45.494;9.150;2022-07-23T10:19:55;10.90;;;9.57;;
61019;SDS011;51384;45.494;9.150;2022-07-23T10:30:19;11.77;;;8.70;;
61019;SDS011;51384;45.494;9.150;2022-07-23T10:37:57;11.57;;;9.20;;
61019;SDS011;51384;45.494;9.150;2022-07-23T10:40:26;10.13;;;8.65;;
61019;SDS011;51384;45.494;9.150;2022-07-23T10:42:53;10.52;;;9.07;;
61019;SDS011;51384;45.494;9.150;2022-07-23T10:47:56;10.88;;;9.20;;
61019;SDS011;51384;45.494;9.150;2022-07-23T10:50:37;11.65;;;9.55;;
61019;SDS011;51384;45.494;9.150;2022-07-23T10:55:40;10.30;;;9.20;;
61019;SDS011;51384;45.494;9.150;2022-07-23T10:58:06;14.10;;;9.65;;
61019;SDS011;51384;45.494;9.150;2022-07-23T11:00:33;12.95;;;10.32;;
61019;SDS011;51384;45.494;9.150;2022-07-23T11:03:04;11.15;;;9.20;;
61019;SDS011;51384;45.494;9.150;2022-07-23T11:05:43;10.88;;;9.75;;
61019;SDS011;51384;45.494;9.150;2022-07-23T11:08:11;13.65;;;10.50;;
61019;SDS011;51384;45.494;9.150;2022-07-23T11:32:06;11.93;;;9.30;;
61019;SDS011;51384;45.494;9.150;2022-07-23T11:34:34;12.93;;;9.70;;
61019;SDS011;51384;45.494;9.150;2022-07-23T11:37:01;11.40;;;9.13;;
61019;SDS011;51384;45.494;9.150;2022-07-23T11:39:28;13.15;;;9.70;;
61019;SDS011;51384;45.494;9.150;2022-07-23T11:41:55;12.10;;;9.65;;
61019;SDS011;51384;45.494;9.150;2022-07-23T11:44:28;13.77;;;9.95;;
61019;SDS011;51384;45.494;9.150;2022-07-23T11:46:59;10.27;;;9.13;;
61019;SDS011;51384;45.494;9.150;2022-07-23T11:49:26;10.65;;;9.05;;
61019;SDS011;51384;45.494;9.150;2022-07-23T11:54:54;10.07;;;9.07;;
61019;SDS011;51384;45.494;9.150;2022-07-23T11:57:23;13.90;;;9.32;;
61019;SDS011;51384;45.494;9.150;2022-07-23T11:59:51;11.48;;;9.48;;
61019;SDS011;51384;45.494;9.150;2022-07-23T12:02:19;11.38;;;9.50;;
61019;SDS011;51384;45.494;9.150;2022-07-23T12:04:46;13.38;;;12.18;;
61019;SDS011;51384;45.494;9.150;2022-07-23T12:09:58;12.48;;;9.65;;
61019;SDS011;51384;45.494;9.150;2022-07-23T12:12:24;11.02;;;9.82;;
61019;SDS011;51384;45.494;9.150;2022-07-23T12:14:52;11.95;;;9.30;;
61019;SDS011;51384;45.494;9.150;2022-07-23T12:17:19;10.15;;;9.15;;
61019;SDS011;51384;45.494;9.150;2022-07-23T12:19:46;10.35;;;8.77;;
61019;SDS011;51384;45.494;9.150;2022-07-23T12:22:12;11.80;;;9.55;;
61019;SDS011;51384;45.494;9.150;2022-07-23T12:24:54;10.07;;;9.05;;
61019;SDS011;51384;45.494;9.150;2022-07-23T12:27:20;10.70;;;9.05;;
61019;SDS011;51384;45.494;9.150;2022-07-23T12:29:47;10.90;;;9.75;;
61019;SDS011;51384;45.494;9.150;2022-07-23T12:32:17;10.90;;;9.80;;
61019;SDS011;51384;45.494;9.150;2022-07-23T12:34:43;12.05;;;9.88;;
61019;SDS011;51384;45.494;9.150;2022-07-23T12:37:24;10.80;;;9.75;;
61019;SDS011;51384;45.494;9.150;2022-07-23T12:39:51;10.68;;;9.65;;
61019;SDS011;51384;45.494;9.150;2022-07-23T12:42:17;13.02;;;10.15;;
61019;SDS011;51384;45.494;9.150;2022-07-23T12:45:02;10.75;;;9.65;;
61019;SDS011;51384;45.494;9.150;2022-07-23T12:47:28;11.10;;;9.90;;
61019;SDS011;51384;45.494;9.150;2022-07-23T12:49:54;10.60;;;9.57;;
61019;SDS011;51384;45.494;9.150;2022-07-23T12:52:20;10.75;;;9.75;;
61019;SDS011;51384;45.494;9.150;2022-07-23T12:54:47;11.18;;;9.23;;
61019;SDS011;51384;45.494;9.150;2022-07-23T12:57:13;11.02;;;9.70;;
61019;SDS011;51384;45.494;9.150;2022-07-23T12:59:39;10.70;;;9.60;;
61019;SDS011;51384;45.494;9.150;2022-07-23T13:02:07;13.18;;;10.05;;
61019;SDS011;51384;45.494;9.150;2022-07-23T13:04:34;11.98;;;9.95;;
61019;SDS011;51384;45.494;9.150;2022-07-23T13:07:00;13.20;;;10.05;;
61019;SDS011;51384;45.494;9.150;2022-07-23T13:09:27;10.63;;;9.43;;
61019;SDS011;51384;45.494;9.150;2022-07-23T13:11:54;10.35;;;9.45;;
61019;SDS011;51384;45.494;9.150;2022-07-23T13:14:21;11.43;;;9.40;;
61019;SDS011;51384;45.494;9.150;2022-07-23T13:16:51;10.60;;;9.60;;
61019;SDS011;51384;45.494;9.150;2022-07-23T13:19:17;10.57;;;9.40;;
61019;SDS011;51384;45.494;9.150;2022-07-23T13:21:43;12.77;;;9.10;;
61019;SDS011;51384;45.494;9.150;2022-07-23T13:24:10;10.35;;;9.20;;
61019;SDS011;51384;45.494;9.150;2022-07-23T13:26:37;10.15;;;8.95;;
61019;SDS011;51384;45.494;9.150;2022-07-23T13:29:04;10.52;;;8.82;;
61019;SDS011;51384;45.494;9.150;2022-07-23T13:31:30;9.05;;;8.15;;
61019;SDS011;51384;45.494;9.150;2022-07-23T13:33:56;12.85;;;8.82;;
61019;SDS011;51384;45.494;9.150;2022-07-23T13:36:22;10.63;;;8.65;;
61019;SDS011;51384;45.494;9.150;2022-07-23T13:38:48;10.57;;;8.15;;
61019;SDS011;51384;45.494;9.150;2022-07-23T13:41:16;9.18;;;8.15;;
61019;SDS011;51384;45.494;9.150;2022-07-23T13:43:42;9.30;;;8.30;;
61019;SDS011;51384;45.494;9.150;2022-07-23T13:46:08;13.40;;;8.88;;
61019;SDS011;51384;45.494;9.150;2022-07-23T13:48:34;10.77;;;8.68;;
61019;SDS011;51384;45.494;9.150;2022-07-23T13:51:00;14.27;;;11.02;;
61019;SDS011;51384;45.494;9.150;2022-07-23T13:53:26;9.10;;;8.18;;
61019;SDS011;51384;45.494;9.150;2022-07-23T13:55:52;10.73;;;8.93;;
61019;SDS011;51384;45.494;9.150;2022-07-23T13:58:19;9.98;;;8.93;;
61019;SDS011;51384;45.494;9.150;2022-07-23T14:00:47;10.48;;;9.45;;
61019;SDS011;51384;45.494;9.150;2022-07-23T14:03:13;9.68;;;8.02;;
61019;SDS011;51384;45.494;9.150;2022-07-23T14:05:39;9.35;;;8.45;;
61019;SDS011;51384;45.494;9.150;2022-07-23T14:08:06;9.95;;;8.65;;
61019;SDS011;51384;45.494;9.150;2022-07-23T14:10:33;9.73;;;8.73;;
61019;SDS011;51384;45.494;9.150;2022-07-23T14:12:59;12.45;;;9.02;;
61019;SDS011;51384;45.494;9.150;2022-07-23T14:15:26;11.52;;;8.75;;
61019;SDS011;51384;45.494;9.150;2022-07-23T14:17:53;12.35;;;9.43;;
61019;SDS011;51384;45.494;9.150;2022-07-23T14:20:19;9.75;;;8.70;;
61019;SDS011;51384;45.494;9.150;2022-07-23T14:22:45;10.73;;;8.80;;
61019;SDS011;51384;45.494;9.150;2022-07-23T14:25:11;10.88;;;9.70;;
61019;SDS011;51384;45.494;9.150;2022-07-23T14:27:37;10.55;;;9.52;;
61019;SDS011;51384;45.494;9.150;2022-07-23T14:30:07;9.50;;;8.52;;
61019;SDS011;51384;45.494;9.150;2022-07-23T14:32:33;8.90;;;8.00;;
61019;SDS011;51384;45.494;9.150;2022-07-23T14:35:00;9.13;;;8.10;;
61019;SDS011;51384;45.494;9.150;2022-07-23T14:37:26;10.32;;;8.52;;
61019;SDS011;51384;45.494;9.150;2022-07-23T14:39:52;9.70;;;8.52;;
61019;SDS011;51384;45.494;9.150;2022-07-23T14:42:18;10.27;;;8.80;;
61019;SDS011;51384;45.494;9.150;2022-07-23T14:44:45;9.70;;;8.70;;
61019;SDS011;51384;45.494;9.150;2022-07-23T14:47:11;9.88;;;8.98;;
61019;SDS011;51384;45.494;9.150;2022-07-23T14:49:38;9.02;;;8.07;;
61019;SDS011;51384;45.494;9.150;2022-07-23T14:52:06;9.52;;;8.50;;
61019;SDS011;51384;45.494;9.150;2022-07-23T14:54:32;9.50;;;8.18;;
61019;SDS011;51384;45.494;9.150;2022-07-23T14:56:59;9.80;;;8.15;;
61019;SDS011;51384;45.494;9.150;2022-07-23T14:59:25;11.98;;;8.05;;
61019;SDS011;51384;45.494;9.150;2022-07-23T15:01:52;9.68;;;8.45;;
61019;SDS011;51384;45.494;9.150;2022-07-23T15:04:18;9.13;;;8.15;;
61019;SDS011;51384;45.494;9.150;2022-07-23T15:06:44;9.05;;;8.15;;
61019;SDS011;51384;45.494;9.150;2022-07-23T15:09:10;11.13;;;7.88;;
61019;SDS011;51384;45.494;9.150;2022-07-23T15:11:36;9.23;;;8.18;;
61019;SDS011;51384;45.494;9.150;2022-07-23T15:14:05;10.50;;;8.00;;
61019;SDS011;51384;45.494;9.150;2022-07-23T15:16:31;9.35;;;8.15;;
61019;SDS011;51384;45.494;9.150;2022-07-23T15:18:57;9.98;;;8.98;;
61019;SDS011;51384;45.494;9.150;2022-07-23T15:21:24;9.00;;;8.10;;
61019;SDS011;51384;45.494;9.150;2022-07-23T15:23:50;9.15;;;7.78;;
61019;SDS011;51384;45.494;9.150;2022-07-23T15:26:17;10.43;;;8.13;;
61019;SDS011;51384;45.494;9.150;2022-07-23T15:28:43;11.10;;;9.20;;
61019;SDS011;51384;45.494;9.150;2022-07-23T15:31:09;9.68;;;8.40;;
61019;SDS011;51384;45.494;9.150;2022-07-23T15:33:36;9.68;;;8.73;;
61019;SDS011;51384;45.494;9.150;2022-07-23T15:36:02;9.80;;;8.82;;